Amagansett, New York
Current Conditions -  °F | °C
As of 4:56 PM on Saturday 20 Dec 2014 (Local Time) from KGON Reporting Station
Overcast Overcast  
Wind Chill: -2°   Ceiling: 3700
Heat Index:   Visibility: 7mi
Dew Point: -4°   Wind: 5mph
Humidity: 72%   Direction: 310°NW
Pressure: 30.25"   Gusts: NA
Location:  40.97°N, 72.14°W
Report Text: KGON 202156Z 31004KT 7SM OVC037 01/M04 A3025 RMK AO2 SLP244 T00061039
Loading
Personal Weather Stations






























Interactive Weather Map New forecast layout! Learn more

10-Day Weather Forecast

Advertisements
Track Severe Weather on mobile